Time;durP1;ratioP1;P1;durP2;ratioP2;P2;SDS_P1;SDS_P2;PMS_P1;PMS_P2;Temp;Humidity;BMP_temperature;BMP_pressure;BME280_temperature;BME280_humidity;BME280_pressure;Samples;Min_cycle;Max_cycle;Signal;HPM_P1;HPM_P2
2021/08/09 00:00:30;;;;;;;2.13;1.40;;;;;;;;;;4985183;28;20214;-75
2021/08/09 00:03:34;;;;;;;4.70;1.70;;;;;;;;;;4997061;28;20573;-75
2021/08/09 00:06:38;;;;;;;2.60;1.70;;;;;;;;;;4997113;28;20182;-74
2021/08/09 00:09:42;;;;;;;3.50;1.70;;;;;;;;;;4997068;28;20487;-74
2021/08/09 00:12:46;;;;;;;3.60;1.77;;;;;;;;;;4974125;28;20225;-75
2021/08/09 00:15:50;;;;;;;1.90;1.30;;;;;;;;;;4996974;28;20182;-75
2021/08/09 00:18:54;;;;;;;3.10;1.60;;;;;;;;;;4984673;28;20209;-75
2021/08/09 00:21:58;;;;;;;3.00;1.60;;;;;;;;;;4997119;28;20193;-75
2021/08/09 00:25:02;;;;;;;2.40;1.50;;;;;;;;;;4973833;28;20190;-75
2021/08/09 00:28:06;;;;;;;6.93;1.87;;;;;;;;;;4996964;28;20530;-74
2021/08/09 00:31:10;;;;;;;2.67;1.40;;;;;;;;;;4984591;28;20182;-75
2021/08/09 00:34:15;;;;;;;5.10;1.80;;;;;;;;;;4973739;28;20222;-75
2021/08/09 00:37:19;;;;;;;7.87;2.00;;;;;;;;;;4973671;28;20201;-75
2021/08/09 00:40:23;;;;;;;3.67;1.60;;;;;;;;;;4984738;28;20187;-75
2021/08/09 00:43:28;;;;;;;6.63;1.90;;;;;;;;;;4984436;28;20226;-75
2021/08/09 00:46:32;;;;;;;3.90;1.80;;;;;;;;;;4984403;28;20224;-74
2021/08/09 00:49:37;;;;;;;4.93;1.80;;;;;;;;;;4984415;28;20195;-74
2021/08/09 00:52:44;;;;;;;3.47;1.60;;;;;;;;;;4973422;28;20226;-75
2021/08/09 00:55:52;;;;;;;7.13;1.63;;;;;;;;;;4984390;28;20214;-75
2021/08/09 00:58:58;;;;;;;2.13;1.60;;;;;;;;;;4983993;28;20226;-74
2021/08/09 01:02:03;;;;;;;5.47;1.80;;;;;;;;;;4984118;28;20202;-74
2021/08/09 01:05:11;;;;;;;3.40;1.90;;;;;;;;;;4984113;28;20186;-75
2021/08/09 01:08:38;;;;;;;4.83;1.60;;;;;;;;;;4984141;28;20661;-75
2021/08/09 01:12:15;;;;;;;2.47;1.80;;;;;;;;;;4984231;28;20186;-75
2021/08/09 01:15:29;;;;;;;4.50;2.00;;;;;;;;;;4973091;28;20182;-75
2021/08/09 01:18:37;;;;;;;3.40;1.60;;;;;;;;;;4972509;28;20222;-75
2021/08/09 01:21:43;;;;;;;4.40;1.80;;;;;;;;;;4973024;28;20183;-75
2021/08/09 01:25:07;;;;;;;2.80;2.00;;;;;;;;;;4983687;28;20205;-75
2021/08/09 01:28:12;;;;;;;3.80;1.60;;;;;;;;;;4983859;28;20186;-75
2021/08/09 01:31:17;;;;;;;3.07;2.10;;;;;;;;;;4995847;28;20622;-75
2021/08/09 01:34:23;;;;;;;2.40;1.40;;;;;;;;;;4983680;28;20213;-75
2021/08/09 01:37:31;;;;;;;1.90;1.50;;;;;;;;;;4983386;28;20175;-74
2021/08/09 01:40:36;;;;;;;3.67;1.80;;;;;;;;;;4983409;28;20198;-75
2021/08/09 01:43:43;;;;;;;2.80;1.53;;;;;;;;;;4983169;28;20226;-75
2021/08/09 01:46:49;;;;;;;5.40;1.80;;;;;;;;;;4972372;28;20186;-75
2021/08/09 01:49:53;;;;;;;7.47;1.80;;;;;;;;;;4995727;28;20182;-75
2021/08/09 01:52:58;;;;;;;5.90;1.50;;;;;;;;;;4983395;28;20218;-75
2021/08/09 01:56:03;;;;;;;5.13;2.03;;;;;;;;;;4983099;28;20182;-75
2021/08/09 01:59:08;;;;;;;2.03;1.70;;;;;;;;;;4971914;28;20218;-74
2021/08/09 02:02:31;;;;;;;6.00;2.10;;;;;;;;;;4982945;28;20183;-74
2021/08/09 02:05:36;;;;;;;2.10;1.70;;;;;;;;;;4983218;28;20190;-75
2021/08/09 02:08:46;;;;;;;4.63;1.63;;;;;;;;;;4982862;28;20224;-75
2021/08/09 02:11:53;;;;;;;2.47;1.80;;;;;;;;;;4983095;28;20622;-74
2021/08/09 02:15:02;;;;;;;5.17;1.70;;;;;;;;;;4982947;28;20179;-75
2021/08/09 02:18:13;;;;;;;3.73;2.10;;;;;;;;;;4982982;28;20210;-75
2021/08/09 02:21:26;;;;;;;3.90;1.90;;;;;;;;;;4982635;28;20190;-75
2021/08/09 02:24:40;;;;;;;2.10;1.90;;;;;;;;;;4982576;28;20218;-74
2021/08/09 02:27:53;;;;;;;3.13;1.90;;;;;;;;;;4982899;28;20633;-74
2021/08/09 02:31:03;;;;;;;4.30;1.80;;;;;;;;;;4982539;28;20194;-75
2021/08/09 02:34:14;;;;;;;3.73;1.80;;;;;;;;;;4982707;28;20229;-75
2021/08/09 02:37:18;;;;;;;2.33;1.87;;;;;;;;;;4982711;28;20186;-75
2021/08/09 02:40:24;;;;;;;4.90;1.80;;;;;;;;;;4998054;23;20174;-74
2021/08/09 02:43:30;;;;;;;4.73;2.00;;;;;;;;;;4991694;28;20240;-74
2021/08/09 02:46:35;;;;;;;4.20;1.80;;;;;;;;;;5002038;28;20636;-74
2021/08/09 02:49:46;;;;;;;8.40;2.33;;;;;;;;;;5013774;28;20193;-74
2021/08/09 02:52:51;;;;;;;6.10;1.60;;;;;;;;;;5001473;28;20220;-74
2021/08/09 02:56:00;;;;;;;7.77;2.20;;;;;;;;;;4990522;28;20177;-74
2021/08/09 02:59:05;;;;;;;6.07;1.80;;;;;;;;;;5012920;28;20225;-74
2021/08/09 03:02:12;;;;;;;9.83;1.93;;;;;;;;;;5001608;28;20197;-74
2021/08/09 03:05:17;;;;;;;2.40;1.63;;;;;;;;;;5001984;28;20185;-75
2021/08/09 03:08:23;;;;;;;1.97;1.77;;;;;;;;;;5013086;28;20181;-74
2021/08/09 03:11:27;;;;;;;2.37;1.67;;;;;;;;;;4990463;28;20636;-75
2021/08/09 03:14:31;;;;;;;4.33;1.80;;;;;;;;;;5001125;28;20217;-75
2021/08/09 03:17:37;;;;;;;2.87;1.73;;;;;;;;;;4986646;28;20186;-76
2021/08/09 03:20:42;;;;;;;3.00;1.90;;;;;;;;;;5008948;28;20186;-75
2021/08/09 03:23:46;;;;;;;4.93;2.37;;;;;;;;;;4997653;28;20217;-75
2021/08/09 03:26:51;;;;;;;4.63;2.10;;;;;;;;;;4997712;28;20185;-74
2021/08/09 03:29:56;;;;;;;4.67;1.90;;;;;;;;;;4997616;28;20640;-75
2021/08/09 03:33:00;;;;;;;3.90;1.93;;;;;;;;;;5009590;28;20224;-75
2021/08/09 03:36:07;;;;;;;6.40;2.20;;;;;;;;;;5008909;28;20185;-75
2021/08/09 03:39:14;;;;;;;5.97;1.83;;;;;;;;;;5008299;28;20205;-75
2021/08/09 03:42:20;;;;;;;4.57;2.13;;;;;;;;;;5008614;28;20213;-74
2021/08/09 03:45:26;;;;;;;7.80;2.20;;;;;;;;;;5009264;28;20186;-75
2021/08/09 03:48:31;;;;;;;2.37;1.87;;;;;;;;;;5015025;28;20181;-75
2021/08/09 03:51:39;;;;;;;4.20;1.90;;;;;;;;;;4997106;28;20189;-75
2021/08/09 03:54:45;;;;;;;6.27;1.70;;;;;;;;;;5008668;28;20181;-75
2021/08/09 03:57:49;;;;;;;2.07;1.70;;;;;;;;;;5015125;28;20528;-75
2021/08/09 04:00:53;;;;;;;3.60;2.00;;;;;;;;;;5016669;28;20185;-75
2021/08/09 04:03:57;;;;;;;2.23;1.70;;;;;;;;;;5016555;28;20225;-75
2021/08/09 04:07:02;;;;;;;4.77;1.83;;;;;;;;;;5020311;28;20205;-75
2021/08/09 04:10:07;;;;;;;2.17;1.97;;;;;;;;;;5020465;28;20462;-75
2021/08/09 04:13:12;;;;;;;9.43;1.90;;;;;;;;;;5008728;28;20635;-75
2021/08/09 04:16:16;;;;;;;5.33;1.57;;;;;;;;;;5015229;28;20478;-74
2021/08/09 04:19:20;;;;;;;4.17;1.90;;;;;;;;;;5028203;28;20613;-75
2021/08/09 04:22:25;;;;;;;3.30;1.93;;;;;;;;;;5011386;28;20188;-75
2021/08/09 04:25:29;;;;;;;2.90;1.60;;;;;;;;;;5000633;28;20189;-75
2021/08/09 04:28:35;;;;;;;5.93;1.57;;;;;;;;;;5011586;28;20201;-75
2021/08/09 04:31:42;;;;;;;3.20;1.60;;;;;;;;;;5012623;28;20185;-75
2021/08/09 04:34:47;;;;;;;2.00;1.60;;;;;;;;;;4978360;28;20186;-75
2021/08/09 04:37:51;;;;;;;2.60;1.60;;;;;;;;;;5000428;28;20205;-74
2021/08/09 04:40:56;;;;;;;4.63;1.50;;;;;;;;;;5012018;28;20209;-75
2021/08/09 04:44:00;;;;;;;1.73;1.53;;;;;;;;;;5000313;28;20218;-75
2021/08/09 04:47:05;;;;;;;2.23;1.60;;;;;;;;;;4992992;28;20182;-75
2021/08/09 04:50:10;;;;;;;4.40;1.50;;;;;;;;;;5003872;28;20651;-75
2021/08/09 04:53:17;;;;;;;2.97;1.80;;;;;;;;;;5003801;28;20217;-74
2021/08/09 04:56:21;;;;;;;1.90;1.50;;;;;;;;;;5015394;28;20509;-74
2021/08/09 04:59:25;;;;;;;5.03;1.63;;;;;;;;;;5014844;28;20545;-74
2021/08/09 05:02:29;;;;;;;7.93;1.70;;;;;;;;;;5003903;28;20186;-74
2021/08/09 05:05:33;;;;;;;3.40;1.97;;;;;;;;;;5015970;28;20189;-75
2021/08/09 05:08:37;;;;;;;4.27;1.57;;;;;;;;;;5003513;28;20199;-74
2021/08/09 05:11:41;;;;;;;4.13;1.63;;;;;;;;;;5015032;28;20178;-74
2021/08/09 05:14:50;;;;;;;6.50;1.97;;;;;;;;;;4992422;28;20629;-74
2021/08/09 05:17:56;;;;;;;1.87;1.70;;;;;;;;;;5002523;28;20182;-74
2021/08/09 05:21:00;;;;;;;5.03;2.10;;;;;;;;;;5009715;28;20178;-74
2021/08/09 05:24:05;;;;;;;2.23;1.87;;;;;;;;;;5015516;28;20213;-74
2021/08/09 05:27:09;;;;;;;4.70;2.00;;;;;;;;;;5003294;28;20182;-74
2021/08/09 05:30:13;;;;;;;2.77;1.77;;;;;;;;;;5015456;28;20170;-74
2021/08/09 05:33:17;;;;;;;3.93;1.93;;;;;;;;;;5003063;28;20217;-74
2021/08/09 05:36:22;;;;;;;2.23;2.00;;;;;;;;;;5003089;28;20177;-74
2021/08/09 05:39:29;;;;;;;3.10;1.70;;;;;;;;;;5014923;28;20205;-75
2021/08/09 05:42:34;;;;;;;2.93;1.80;;;;;;;;;;5002698;28;20225;-74
2021/08/09 05:45:38;;;;;;;3.90;1.97;;;;;;;;;;5002885;28;20177;-75
2021/08/09 05:48:44;;;;;;;3.13;2.00;;;;;;;;;;5003391;28;20193;-74
2021/08/09 05:51:48;;;;;;;6.93;2.03;;;;;;;;;;5003026;28;20181;-74
2021/08/09 05:54:53;;;;;;;6.57;2.17;;;;;;;;;;5002788;28;20209;-74
2021/08/09 05:57:58;;;;;;;8.97;2.40;;;;;;;;;;5002911;28;20177;-74
2021/08/09 06:01:04;;;;;;;3.07;2.30;;;;;;;;;;4991126;28;20209;-74
2021/08/09 06:04:11;;;;;;;2.70;2.00;;;;;;;;;;5002715;28;20224;-74
2021/08/09 06:07:18;;;;;;;3.67;2.17;;;;;;;;;;5002429;28;20197;-74
2021/08/09 06:10:33;;;;;;;3.63;2.37;;;;;;;;;;4991655;28;20186;-74
2021/08/09 06:13:41;;;;;;;3.67;2.83;;;;;;;;;;5002333;28;20217;-74
2021/08/09 06:16:46;;;;;;;8.17;3.53;;;;;;;;;;5002573;28;20185;-75
2021/08/09 06:19:53;;;;;;;7.33;3.53;;;;;;;;;;5002354;28;20210;-74
2021/08/09 06:22:59;;;;;;;8.53;3.33;;;;;;;;;;5002255;28;20696;-75
2021/08/09 06:26:03;;;;;;;5.63;3.50;;;;;;;;;;5002495;28;20297;-74
2021/08/09 06:29:09;;;;;;;4.23;2.60;;;;;;;;;;5002453;28;20178;-74
2021/08/09 06:32:16;;;;;;;3.70;2.60;;;;;;;;;;5002010;28;20186;-75
2021/08/09 06:35:20;;;;;;;7.67;2.43;;;;;;;;;;5014371;28;20182;-74
2021/08/09 06:38:25;;;;;;;4.07;2.37;;;;;;;;;;5001941;28;20177;-74
2021/08/09 06:41:32;;;;;;;3.97;2.40;;;;;;;;;;5001964;28;20204;-74
2021/08/09 06:44:52;;;;;;;4.63;2.27;;;;;;;;;;5013190;28;20186;-74
2021/08/09 06:47:57;;;;;;;2.97;1.93;;;;;;;;;;5002364;28;20197;-74
2021/08/09 06:51:02;;;;;;;2.87;1.67;;;;;;;;;;5001785;28;20174;-74
2021/08/09 06:54:07;;;;;;;3.23;2.10;;;;;;;;;;5001686;28;20217;-74
2021/08/09 06:57:13;;;;;;;4.43;3.40;;;;;;;;;;5002019;28;20177;-75
2021/08/09 07:00:17;;;;;;;8.33;2.00;;;;;;;;;;5001414;28;20221;-74
2021/08/09 07:03:22;;;;;;;3.43;2.00;;;;;;;;;;4990420;28;20553;-75
2021/08/09 07:06:26;;;;;;;7.30;1.80;;;;;;;;;;5013931;28;20178;-74
2021/08/09 07:09:34;;;;;;;4.43;2.07;;;;;;;;;;5001543;28;20174;-74
2021/08/09 07:12:38;;;;;;;4.53;2.00;;;;;;;;;;5001410;28;20700;-74
2021/08/09 07:15:42;;;;;;;5.10;2.20;;;;;;;;;;5001601;28;20632;-74
2021/08/09 07:18:46;;;;;;;5.00;1.57;;;;;;;;;;5001495;28;20636;-74
2021/08/09 07:21:50;;;;;;;6.50;2.67;;;;;;;;;;5001679;28;20189;-74
2021/08/09 07:24:55;;;;;;;6.73;6.03;;;;;;;;;;5001621;28;20530;-74
2021/08/09 07:27:59;;;;;;;5.33;4.13;;;;;;;;;;5001384;28;20185;-74
2021/08/09 07:31:04;;;;;;;5.00;4.43;;;;;;;;;;5001338;28;20185;-74
2021/08/09 07:34:11;;;;;;;6.70;3.37;;;;;;;;;;5001241;28;20212;-74
2021/08/09 07:37:15;;;;;;;3.63;1.47;;;;;;;;;;5001514;28;20197;-75
2021/08/09 07:40:19;;;;;;;3.30;1.47;;;;;;;;;;5002774;28;20205;-74
2021/08/09 07:43:24;;;;;;;3.93;1.50;;;;;;;;;;5016687;28;20221;-74
2021/08/09 07:46:28;;;;;;;5.13;1.23;;;;;;;;;;5005647;28;20189;-74
2021/08/09 07:49:36;;;;;;;2.33;1.27;;;;;;;;;;5005334;28;20534;-74
2021/08/09 07:52:40;;;;;;;1.80;1.23;;;;;;;;;;5004870;28;20553;-74
2021/08/09 07:55:44;;;;;;;2.27;1.20;;;;;;;;;;5005020;28;20182;-74
2021/08/09 07:58:48;;;;;;;3.73;1.33;;;;;;;;;;4993792;28;20181;-74
2021/08/09 08:01:52;;;;;;;4.63;1.60;;;;;;;;;;5004739;28;20186;-74
2021/08/09 08:04:57;;;;;;;3.23;1.10;;;;;;;;;;5005341;28;20178;-74
2021/08/09 08:08:01;;;;;;;1.83;1.00;;;;;;;;;;5004730;28;20186;-74
2021/08/09 08:11:06;;;;;;;2.80;1.10;;;;;;;;;;5004858;28;20177;-74
2021/08/09 08:14:12;;;;;;;2.20;1.00;;;;;;;;;;5005046;28;20569;-74
2021/08/09 08:17:17;;;;;;;3.50;1.30;;;;;;;;;;4993639;28;20532;-74
2021/08/09 08:20:21;;;;;;;3.97;1.40;;;;;;;;;;5004961;28;20209;-74
2021/08/09 08:23:27;;;;;;;1.53;1.27;;;;;;;;;;5004523;28;20217;-74
2021/08/09 08:26:32;;;;;;;2.77;0.80;;;;;;;;;;4993533;28;20533;-74
2021/08/09 08:29:36;;;;;;;1.93;1.00;;;;;;;;;;5004480;28;20190;-74
2021/08/09 08:32:42;;;;;;;3.57;1.27;;;;;;;;;;5004239;28;20217;-73
2021/08/09 08:35:47;;;;;;;4.50;2.07;;;;;;;;;;4996913;28;20630;-74
2021/08/09 08:38:51;;;;;;;1.80;1.40;;;;;;;;;;5004233;28;20181;-74
2021/08/09 08:42:38;;;;;;;1.73;1.00;;;;;;;;;;5034914;23;20243;-85
2021/08/09 08:47:17;;;;;;;2.13;0.80;;;;;;;;;;5026599;28;20530;-86
2021/08/09 08:50:42;;;;;;;1.53;0.97;;;;;;;;;;5014232;28;20187;-86
2021/08/09 08:58:26;;;;;;;2.83;1.08;;;;;;;;;;5033405;28;20177;-86
2021/08/09 09:02:32;;;;;;;2.03;0.95;;;;;;;;;;5019188;28;20228;-86
2021/08/09 09:06:19;;;;;;;3.65;1.10;;;;;;;;;;5024721;28;20532;-87
2021/08/09 09:09:24;;;;;;;3.03;1.63;;;;;;;;;;5033237;28;20183;-86
2021/08/09 09:12:29;;;;;;;3.80;1.30;;;;;;;;;;5010561;28;20556;-86
2021/08/09 09:15:52;;;;;;;2.67;1.10;;;;;;;;;;5012928;28;20188;-86
2021/08/09 09:18:59;;;;;;;2.33;1.13;;;;;;;;;;5008211;28;20188;-86
2021/08/09 09:22:06;;;;;;;4.43;1.10;;;;;;;;;;5018313;28;20216;-86
2021/08/09 09:25:10;;;;;;;2.00;1.08;;;;;;;;;;5001648;28;20187;-86
2021/08/09 09:28:23;;;;;;;3.67;1.50;;;;;;;;;;5021028;28;20179;-86
2021/08/09 09:31:35;;;;;;;3.50;0.90;;;;;;;;;;5022427;28;20215;-86
2021/08/09 09:34:52;;;;;;;3.67;1.20;;;;;;;;;;5035489;28;20181;-86
2021/08/09 09:37:57;;;;;;;6.13;5.03;;;;;;;;;;5006709;28;20189;-87
2021/08/09 09:41:05;;;;;;;3.42;1.90;;;;;;;;;;5029701;28;20204;-85
2021/08/09 09:44:21;;;;;;;6.80;2.90;;;;;;;;;;5019322;28;20191;-87
2021/08/09 09:47:27;;;;;;;2.58;1.13;;;;;;;;;;5021370;28;20189;-84
2021/08/09 09:50:43;;;;;;;1.73;1.15;;;;;;;;;;5035548;28;20189;-83
2021/08/09 09:53:49;;;;;;;11.00;1.23;;;;;;;;;;5051645;28;20186;-83
2021/08/09 09:56:54;;;;;;;2.25;1.00;;;;;;;;;;5037809;28;20187;-84
2021/08/09 09:59:59;;;;;;;3.17;0.82;;;;;;;;;;5009652;28;20196;-85
2021/08/09 10:03:03;;;;;;;1.40;1.02;;;;;;;;;;4978152;23;20238;-77
2021/08/09 10:06:08;;;;;;;4.72;1.00;;;;;;;;;;4979127;28;20187;-77
2021/08/09 10:09:14;;;;;;;2.65;1.10;;;;;;;;;;4967115;28;20193;-77
2021/08/09 10:12:25;;;;;;;3.10;0.90;;;;;;;;;;4978131;28;20181;-77
2021/08/09 10:15:29;;;;;;;2.13;0.90;;;;;;;;;;4967372;28;20187;-77
2021/08/09 10:18:36;;;;;;;1.58;0.82;;;;;;;;;;4969883;28;20187;-78
2021/08/09 10:21:41;;;;;;;1.75;1.02;;;;;;;;;;4979809;28;20210;-77
2021/08/09 10:24:48;;;;;;;4.32;1.00;;;;;;;;;;4963392;28;20187;-76
2021/08/09 10:27:53;;;;;;;5.18;0.90;;;;;;;;;;4963638;28;20183;-76
2021/08/09 10:31:21;;;;;;;1.85;0.95;;;;;;;;;;4963173;28;20634;-77
2021/08/09 10:34:39;;;;;;;3.15;1.00;;;;;;;;;;4963500;28;20221;-77
2021/08/09 10:38:11;;;;;;;2.35;1.10;;;;;;;;;;4963615;28;20189;-76
2021/08/09 10:41:15;;;;;;;3.53;0.80;;;;;;;;;;4963031;28;20213;-77
2021/08/09 10:44:21;;;;;;;1.17;0.88;;;;;;;;;;4962989;28;20227;-76
2021/08/09 10:47:54;;;;;;;7.88;1.30;;;;;;;;;;4963395;28;20183;-76
2021/08/09 10:50:58;;;;;;;1.88;0.88;;;;;;;;;;4963607;28;20523;-77
2021/08/09 10:54:29;;;;;;;2.15;0.98;;;;;;;;;;4963043;28;20555;-77
2021/08/09 10:57:43;;;;;;;2.58;0.80;;;;;;;;;;4963610;28;20187;-77
2021/08/09 11:00:47;;;;;;;1.17;0.90;;;;;;;;;;4963209;28;20211;-78
2021/08/09 11:04:04;;;;;;;3.95;1.13;;;;;;;;;;4956765;28;20215;-78
2021/08/09 11:07:16;;;;;;;1.95;1.00;;;;;;;;;;4966763;28;20199;-77
2021/08/09 11:10:53;;;;;;;2.50;1.10;;;;;;;;;;4966009;28;20198;-78
2021/08/09 11:13:57;;;;;;;5.05;0.95;;;;;;;;;;4956923;29;20219;-77
2021/08/09 11:17:02;;;;;;;1.65;1.20;;;;;;;;;;4957150;29;20191;-78
2021/08/09 11:20:20;;;;;;;1.02;0.75;;;;;;;;;;4977202;28;20194;-79
2021/08/09 11:23:24;;;;;;;3.67;0.70;;;;;;;;;;4944491;28;20567;-78
2021/08/09 11:26:30;;;;;;;3.55;1.00;;;;;;;;;;4963869;28;20207;-78
2021/08/09 11:29:56;;;;;;;1.73;0.90;;;;;;;;;;4976019;28;20673;-78
2021/08/09 11:33:01;;;;;;;1.13;0.80;;;;;;;;;;4964327;28;20571;-78
2021/08/09 11:36:10;;;;;;;1.45;0.90;;;;;;;;;;4964381;28;20662;-77
2021/08/09 11:39:14;;;;;;;2.05;1.13;;;;;;;;;;4945555;29;20196;-77
2021/08/09 11:42:18;;;;;;;3.10;0.90;;;;;;;;;;4944174;28;20219;-77
2021/08/09 11:45:24;;;;;;;2.65;0.90;;;;;;;;;;4957452;28;20670;-78
2021/08/09 11:48:31;;;;;;;3.35;1.00;;;;;;;;;;4978829;28;20180;-78
2021/08/09 11:51:35;;;;;;;3.28;1.02;;;;;;;;;;4953625;28;20187;-77
2021/08/09 11:54:42;;;;;;;3.50;1.25;;;;;;;;;;4941938;28;20262;-77
2021/08/09 11:57:46;;;;;;;2.67;1.20;;;;;;;;;;4962677;28;20531;-77
2021/08/09 12:00:50;;;;;;;1.77;1.05;;;;;;;;;;4962277;28;20219;-77
2021/08/09 12:04:05;;;;;;;1.40;0.80;;;;;;;;;;4974772;28;20218;-77
2021/08/09 12:07:18;;;;;;;2.00;1.00;;;;;;;;;;4974366;28;20542;-77
2021/08/09 12:10:25;;;;;;;2.58;1.02;;;;;;;;;;4962120;28;20187;-77
2021/08/09 12:13:31;;;;;;;2.13;1.10;;;;;;;;;;4974169;28;20698;-78
2021/08/09 12:16:49;;;;;;;2.42;1.00;;;;;;;;;;4964980;28;20533;-77
2021/08/09 12:19:54;;;;;;;3.47;1.00;;;;;;;;;;4974694;28;20203;-76
2021/08/09 12:22:58;;;;;;;3.15;1.20;;;;;;;;;;4957047;28;20231;-77
2021/08/09 12:26:03;;;;;;;2.15;1.10;;;;;;;;;;4964002;28;20199;-77
2021/08/09 12:29:15;;;;;;;3.53;1.00;;;;;;;;;;4978304;28;20191;-77
2021/08/09 12:32:22;;;;;;;1.80;1.00;;;;;;;;;;4978485;28;20185;-77
2021/08/09 12:35:37;;;;;;;2.75;1.00;;;;;;;;;;4966037;28;20198;-77
2021/08/09 12:38:42;;;;;;;3.45;1.00;;;;;;;;;;4958584;28;20184;-77
2021/08/09 12:41:46;;;;;;;2.33;1.00;;;;;;;;;;4966668;28;20213;-77
2021/08/09 12:44:51;;;;;;;1.38;0.90;;;;;;;;;;4977155;28;20199;-77
2021/08/09 12:47:57;;;;;;;2.45;0.90;;;;;;;;;;4977943;28;20526;-77
2021/08/09 12:51:01;;;;;;;2.53;0.90;;;;;;;;;;4954913;28;20193;-77
2021/08/09 12:54:05;;;;;;;2.20;1.00;;;;;;;;;;4966231;28;20215;-77
2021/08/09 12:57:11;;;;;;;2.22;0.98;;;;;;;;;;4960295;28;20195;-78
2021/08/09 13:00:16;;;;;;;1.73;0.88;;;;;;;;;;4978223;28;20186;-78
2021/08/09 13:03:21;;;;;;;1.80;0.80;;;;;;;;;;4975777;28;20238;-78
2021/08/09 13:06:25;;;;;;;3.53;1.13;;;;;;;;;;4967096;28;20815;-78
2021/08/09 13:09:30;;;;;;;2.75;0.90;;;;;;;;;;4957182;28;20183;-78
2021/08/09 13:12:35;;;;;;;2.35;1.00;;;;;;;;;;4967175;28;20222;-78
2021/08/09 13:15:40;;;;;;;1.92;0.90;;;;;;;;;;4960468;28;20194;-78
2021/08/09 13:18:44;;;;;;;1.50;0.80;;;;;;;;;;4979207;28;20187;-78
2021/08/09 13:21:48;;;;;;;3.63;0.93;;;;;;;;;;4966987;28;20211;-78
2021/08/09 13:24:52;;;;;;;2.25;1.10;;;;;;;;;;4977263;28;20207;-78
2021/08/09 13:27:58;;;;;;;1.63;0.90;;;;;;;;;;4980152;28;20187;-79
2021/08/09 13:31:03;;;;;;;1.88;1.00;;;;;;;;;;4959905;29;20207;-79
2021/08/09 13:34:07;;;;;;;2.40;1.00;;;;;;;;;;4969249;28;20578;-78
2021/08/09 13:37:11;;;;;;;3.60;1.00;;;;;;;;;;4968055;28;20191;-78
2021/08/09 13:40:15;;;;;;;1.90;0.93;;;;;;;;;;4959924;28;20184;-79
2021/08/09 13:43:21;;;;;;;2.83;1.13;;;;;;;;;;4965433;28;20223;-78
2021/08/09 13:46:26;;;;;;;2.42;0.90;;;;;;;;;;4965330;28;20195;-79
2021/08/09 13:49:30;;;;;;;3.78;1.15;;;;;;;;;;4969739;28;20203;-78
2021/08/09 13:52:34;;;;;;;3.65;0.90;;;;;;;;;;4937032;29;20219;-78
2021/08/09 13:55:38;;;;;;;3.50;1.00;;;;;;;;;;4973280;28;20199;-78
2021/08/09 13:58:43;;;;;;;3.17;0.93;;;;;;;;;;4979076;28;20635;-78
2021/08/09 14:01:47;;;;;;;4.82;1.20;;;;;;;;;;4965378;28;20694;-79
2021/08/09 14:04:52;;;;;;;2.33;1.00;;;;;;;;;;4967025;28;20199;-78
2021/08/09 14:07:56;;;;;;;3.30;1.00;;;;;;;;;;4976680;28;20537;-76
2021/08/09 14:11:00;;;;;;;3.03;1.00;;;;;;;;;;4975345;28;20214;-77
2021/08/09 14:14:04;;;;;;;3.88;1.00;;;;;;;;;;4978182;28;20219;-77
2021/08/09 14:17:08;;;;;;;2.22;1.17;;;;;;;;;;4963226;28;20183;-77
2021/08/09 14:20:19;;;;;;;4.15;1.13;;;;;;;;;;4953071;28;20191;-77
2021/08/09 14:23:27;;;;;;;2.97;1.00;;;;;;;;;;4975444;28;20222;-77
2021/08/09 14:26:33;;;;;;;5.53;0.90;;;;;;;;;;4986214;28;20191;-78
2021/08/09 14:29:39;;;;;;;4.82;1.20;;;;;;;;;;4976269;28;20191;-76
2021/08/09 14:32:43;;;;;;;2.67;1.10;;;;;;;;;;4958372;28;20219;-77
2021/08/09 14:35:49;;;;;;;1.63;1.00;;;;;;;;;;4974425;28;20188;-77
2021/08/09 14:39:00;;;;;;;4.85;1.13;;;;;;;;;;4955290;29;20194;-77
2021/08/09 14:42:13;;;;;;;3.50;1.02;;;;;;;;;;4972675;23;20233;-75
2021/08/09 14:45:24;;;;;;;1.75;1.00;;;;;;;;;;4982306;28;20198;-76
2021/08/09 14:48:29;;;;;;;1.92;0.98;;;;;;;;;;4994467;28;20533;-75
2021/08/09 14:51:37;;;;;;;2.00;1.10;;;;;;;;;;4982550;28;20199;-75
2021/08/09 14:54:41;;;;;;;2.22;1.23;;;;;;;;;;4991920;28;20194;-76
2021/08/09 14:57:47;;;;;;;2.15;1.00;;;;;;;;;;4982238;28;20182;-75
2021/08/09 15:00:52;;;;;;;2.28;1.20;;;;;;;;;;4969749;28;20182;-76
2021/08/09 15:04:20;;;;;;;3.30;1.20;;;;;;;;;;4982071;28;20215;-76
2021/08/09 15:07:31;;;;;;;1.85;0.95;;;;;;;;;;4982136;28;20524;-76
2021/08/09 15:10:41;;;;;;;2.72;1.15;;;;;;;;;;4996223;28;20636;-76
2021/08/09 15:13:45;;;;;;;2.50;0.82;;;;;;;;;;5002706;28;20226;-75
2021/08/09 15:16:49;;;;;;;4.80;1.30;;;;;;;;;;4981863;28;20633;-76
2021/08/09 15:19:53;;;;;;;4.47;1.33;;;;;;;;;;4995010;28;20657;-75
2021/08/09 15:22:57;;;;;;;1.77;0.98;;;;;;;;;;5002201;28;20229;-76
2021/08/09 15:26:01;;;;;;;2.03;0.90;;;;;;;;;;4992293;28;20236;-76
2021/08/09 15:29:05;;;;;;;7.57;1.73;;;;;;;;;;4962621;28;20190;-75
2021/08/09 15:32:09;;;;;;;1.70;1.20;;;;;;;;;;4984142;28;20187;-76
2021/08/09 15:35:14;;;;;;;1.92;1.05;;;;;;;;;;4993844;28;20186;-75
2021/08/09 15:38:18;;;;;;;2.67;1.00;;;;;;;;;;4981903;28;20635;-76
2021/08/09 15:41:22;;;;;;;1.55;0.85;;;;;;;;;;4994031;28;20196;-76
2021/08/09 15:44:26;;;;;;;4.85;1.02;;;;;;;;;;4981692;28;20223;-76
2021/08/09 15:47:32;;;;;;;2.30;1.10;;;;;;;;;;4994211;28;20184;-76
2021/08/09 15:50:38;;;;;;;3.65;1.15;;;;;;;;;;4981801;28;20181;-76
2021/08/09 15:53:43;;;;;;;9.73;1.17;;;;;;;;;;4994298;28;20217;-76
2021/08/09 15:56:47;;;;;;;6.53;1.40;;;;;;;;;;4959824;28;20184;-76
2021/08/09 15:59:51;;;;;;;2.53;1.10;;;;;;;;;;4981697;28;20178;-76
2021/08/09 16:02:56;;;;;;;4.47;1.25;;;;;;;;;;4997104;28;20232;-76
2021/08/09 16:06:02;;;;;;;7.75;1.23;;;;;;;;;;4997581;28;20184;-76
2021/08/09 16:09:06;;;;;;;6.13;1.20;;;;;;;;;;4985266;28;20197;-76
2021/08/09 16:12:10;;;;;;;3.57;1.10;;;;;;;;;;4997208;28;20186;-76
2021/08/09 16:15:14;;;;;;;3.27;1.00;;;;;;;;;;4997138;28;20181;-76
2021/08/09 16:18:19;;;;;;;10.97;1.20;;;;;;;;;;4996325;28;20624;-76
2021/08/09 16:21:23;;;;;;;3.23;1.50;;;;;;;;;;4997284;28;20187;-76
2021/08/09 16:24:27;;;;;;;3.10;1.50;;;;;;;;;;4996883;28;20553;-76
2021/08/09 16:27:31;;;;;;;5.97;1.50;;;;;;;;;;4997218;28;20188;-76
2021/08/09 16:30:35;;;;;;;5.80;1.20;;;;;;;;;;4997155;28;20189;-76
2021/08/09 16:33:39;;;;;;;6.77;1.90;;;;;;;;;;4996731;28;20216;-76
2021/08/09 16:36:44;;;;;;;2.87;1.33;;;;;;;;;;4985060;28;20185;-76
2021/08/09 16:39:48;;;;;;;2.53;1.20;;;;;;;;;;4984794;28;20519;-76
2021/08/09 16:42:53;;;;;;;2.77;1.07;;;;;;;;;;4996528;28;20227;-76
2021/08/09 16:45:57;;;;;;;8.67;2.63;;;;;;;;;;4984646;28;20188;-76
2021/08/09 16:49:01;;;;;;;2.77;1.23;;;;;;;;;;4984377;28;20186;-76
2021/08/09 16:52:05;;;;;;;2.53;1.20;;;;;;;;;;4984595;28;20208;-76
2021/08/09 16:55:10;;;;;;;3.07;1.30;;;;;;;;;;4996398;28;20201;-76
2021/08/09 16:58:14;;;;;;;2.97;1.20;;;;;;;;;;4996434;28;20522;-75
2021/08/09 17:01:19;;;;;;;2.97;1.00;;;;;;;;;;4984390;28;20187;-76
2021/08/09 17:04:23;;;;;;;3.50;1.20;;;;;;;;;;4984130;28;20239;-76
2021/08/09 17:07:27;;;;;;;2.10;1.50;;;;;;;;;;4984462;28;20190;-76
2021/08/09 17:10:31;;;;;;;2.03;1.23;;;;;;;;;;4984477;28;20187;-76
2021/08/09 17:13:36;;;;;;;3.70;1.40;;;;;;;;;;4994560;28;20214;-76
2021/08/09 17:16:42;;;;;;;2.77;1.47;;;;;;;;;;4984114;28;20185;-75
2021/08/09 17:19:47;;;;;;;12.90;2.53;;;;;;;;;;4983898;28;20206;-75
2021/08/09 17:22:51;;;;;;;2.30;1.40;;;;;;;;;;4996126;28;20238;-76
2021/08/09 17:25:56;;;;;;;5.17;2.50;;;;;;;;;;4984265;28;20182;-76
2021/08/09 17:29:01;;;;;;;4.93;2.90;;;;;;;;;;4962095;28;20182;-76
2021/08/09 17:32:05;;;;;;;2.37;1.60;;;;;;;;;;4995826;28;20539;-76
2021/08/09 17:35:10;;;;;;;4.27;1.50;;;;;;;;;;4995656;28;20657;-76
2021/08/09 17:38:14;;;;;;;4.17;1.57;;;;;;;;;;4984151;28;20186;-76
2021/08/09 17:41:18;;;;;;;3.90;1.30;;;;;;;;;;4996125;28;20186;-76
2021/08/09 17:44:22;;;;;;;3.57;1.43;;;;;;;;;;4983648;28;20578;-76
2021/08/09 17:47:26;;;;;;;2.73;1.50;;;;;;;;;;5001122;28;20194;-76
2021/08/09 17:50:31;;;;;;;5.87;1.47;;;;;;;;;;5007875;28;20642;-75
2021/08/09 17:53:35;;;;;;;3.83;1.30;;;;;;;;;;4994763;28;20217;-75
2021/08/09 17:56:39;;;;;;;4.30;1.47;;;;;;;;;;4992817;28;20194;-75
2021/08/09 17:59:43;;;;;;;4.50;1.40;;;;;;;;;;4992473;28;20538;-75
2021/08/09 18:02:47;;;;;;;7.60;2.20;;;;;;;;;;4980371;28;20226;-75
2021/08/09 18:05:51;;;;;;;4.27;2.13;;;;;;;;;;4991860;28;20179;-75
2021/08/09 18:08:55;;;;;;;8.53;2.17;;;;;;;;;;4960639;28;20202;-76
2021/08/09 18:11:59;;;;;;;4.77;2.10;;;;;;;;;;5005777;28;20525;-75
2021/08/09 18:15:05;;;;;;;5.83;2.00;;;;;;;;;;4996269;28;20530;-75
2021/08/09 18:18:09;;;;;;;7.23;2.07;;;;;;;;;;4991445;28;20186;-76
2021/08/09 18:21:13;;;;;;;9.80;3.00;;;;;;;;;;4991641;28;20194;-75
2021/08/09 18:24:17;;;;;;;6.83;2.50;;;;;;;;;;4959832;28;20245;-76
2021/08/09 18:27:22;;;;;;;5.90;2.87;;;;;;;;;;4981579;28;20193;-76
2021/08/09 18:30:27;;;;;;;6.40;2.40;;;;;;;;;;5002865;28;20197;-75
2021/08/09 18:33:31;;;;;;;5.70;2.00;;;;;;;;;;4985435;28;20677;-76
2021/08/09 18:36:35;;;;;;;7.50;3.87;;;;;;;;;;5007805;28;20200;-75
2021/08/09 18:39:39;;;;;;;15.87;9.80;;;;;;;;;;4981901;28;20197;-75
2021/08/09 18:42:43;;;;;;;16.87;10.20;;;;;;;;;;4995885;28;20247;-75
2021/08/09 18:45:47;;;;;;;10.20;5.20;;;;;;;;;;5011021;28;20193;-75